Time;durP1;ratioP1;P1;durP2;ratioP2;P2;SDS_P1;SDS_P2;PMS_P1;PMS_P2;Temp;Humidity;BMP_temperature;BMP_pressure;BME280_temperature;BME280_humidity;BME280_pressure;Samples;Min_cycle;Max_cycle;Signal;HPM_P1;HPM_P2
2024/01/06 00:02:05;;;;;;;9.83;7.10;;;;;;;3.41;65.06;100036.38;4997922;28;97120;-53
2024/01/06 00:04:30;;;;;;;8.73;7.07;;;;;;;3.41;65.12;100025.44;4998926;28;97200;-51
2024/01/06 00:06:56;;;;;;;10.30;6.47;;;;;;;3.38;65.30;100031.88;4996982;28;97426;-51
2024/01/06 00:09:21;;;;;;;9.67;6.67;;;;;;;3.36;65.03;100028.84;5000392;28;96769;-51
2024/01/06 00:11:47;;;;;;;11.93;7.30;;;;;;;3.32;65.38;100033.78;4998392;28;97653;-52
2024/01/06 00:14:12;;;;;;;10.60;7.33;;;;;;;3.33;65.46;100032.56;4996381;28;98572;-52
2024/01/06 00:16:37;;;;;;;10.67;7.40;;;;;;;3.31;65.06;100032.31;4999451;28;100479;-52
2024/01/06 00:19:03;;;;;;;8.90;6.83;;;;;;;3.31;65.41;100032.31;5000833;28;96837;-52
2024/01/06 00:21:28;;;;;;;9.43;7.17;;;;;;;3.27;65.41;100039.97;4994649;28;96889;-51
2024/01/06 00:23:55;;;;;;;10.63;6.57;;;;;;;3.27;65.75;100042.72;4998124;28;99006;-51
2024/01/06 00:26:21;;;;;;;10.90;6.40;;;;;;;3.30;65.41;100047.94;4995597;28;97322;-51
2024/01/06 00:28:48;;;;;;;11.50;7.00;;;;;;;3.25;65.50;100043.16;4995104;28;97318;-52
2024/01/06 00:31:15;;;;;;;9.13;6.50;;;;;;;3.26;65.27;100041.19;4996538;28;97113;-51
2024/01/06 00:33:41;;;;;;;14.53;6.97;;;;;;;3.29;65.37;100051.91;4995923;28;97449;-51
2024/01/06 00:36:07;;;;;;;14.60;6.87;;;;;;;3.36;65.52;100056.19;4995465;28;98456;-51
2024/01/06 00:38:32;;;;;;;9.17;6.47;;;;;;;3.39;64.97;100055.25;4994791;28;96696;-51
2024/01/06 00:40:57;;;;;;;10.83;7.00;;;;;;;3.35;65.27;100060.19;4994498;28;97220;-52
2024/01/06 00:43:23;;;;;;;9.37;6.80;;;;;;;3.32;65.12;100063.88;4993451;28;96871;-52
2024/01/06 00:45:48;;;;;;;11.17;7.30;;;;;;;3.28;65.36;100044.19;5001100;28;100160;-52
2024/01/06 00:48:14;;;;;;;11.50;6.90;;;;;;;3.25;65.22;100050.59;4992744;28;96997;-52
2024/01/06 00:50:39;;;;;;;10.13;7.20;;;;;;;3.20;65.51;100054.06;4999223;28;97245;-52
2024/01/06 00:53:04;;;;;;;10.97;7.57;;;;;;;3.22;65.70;100060.53;4997557;28;98035;-52
2024/01/06 00:55:29;;;;;;;12.40;7.70;;;;;;;3.21;65.50;100063.72;4996096;28;101055;-52
2024/01/06 00:57:55;;;;;;;15.17;8.30;;;;;;;3.20;65.65;100065.75;4993354;28;97576;-52
2024/01/06 01:00:20;;;;;;;11.20;7.27;;;;;;;3.22;65.56;100068.75;4995741;28;96800;-52
2024/01/06 01:02:45;;;;;;;10.73;7.50;;;;;;;3.19;65.46;100072.41;4992455;28;98012;-52
2024/01/06 01:05:11;;;;;;;10.40;7.37;;;;;;;3.17;65.75;100072.16;4995147;28;97096;-51
2024/01/06 01:07:36;;;;;;;10.10;7.57;;;;;;;3.16;65.39;100076.09;4996956;28;97152;-52
2024/01/06 01:10:02;;;;;;;9.17;6.77;;;;;;;3.15;65.69;100076.59;5014985;28;96710;-52
2024/01/06 01:12:27;;;;;;;10.10;6.90;;;;;;;3.17;65.69;100088.56;4998608;28;98565;-51
2024/01/06 01:14:53;;;;;;;10.70;7.33;;;;;;;3.21;65.83;100091.81;4998979;28;98634;-52
2024/01/06 01:17:18;;;;;;;9.80;6.47;;;;;;;3.24;65.66;100087.38;4999119;28;96945;-51
2024/01/06 01:19:44;;;;;;;12.07;7.47;;;;;;;3.27;65.44;100091.91;4998919;28;96965;-52
2024/01/06 01:22:10;;;;;;;12.20;8.43;;;;;;;3.23;65.50;100096.81;4998388;28;96971;-52
2024/01/06 01:24:35;;;;;;;11.07;7.23;;;;;;;3.26;65.73;100095.84;4998748;28;98002;-52
2024/01/06 01:27:00;;;;;;;10.73;7.30;;;;;;;3.26;65.73;100104.81;4996103;28;97217;-51
2024/01/06 01:29:26;;;;;;;11.20;7.67;;;;;;;3.27;65.35;100111.03;4998607;28;97099;-52
2024/01/06 01:31:51;;;;;;;10.47;7.20;;;;;;;3.28;65.42;100109.78;4996097;28;98234;-51
2024/01/06 01:34:16;;;;;;;11.07;7.03;;;;;;;3.29;65.64;100116.78;4997754;28;97608;-51
2024/01/06 01:36:42;;;;;;;10.27;6.33;;;;;;;3.30;65.34;100116.28;4994595;28;97163;-51
2024/01/06 01:39:08;;;;;;;11.20;7.27;;;;;;;3.29;65.42;100117.50;4999693;28;97305;-51
2024/01/06 01:41:33;;;;;;;12.73;7.80;;;;;;;3.29;65.47;100120.25;4998027;28;97786;-51
2024/01/06 01:43:58;;;;;;;10.10;7.27;;;;;;;3.30;65.12;100115.53;4995352;28;98366;-51
2024/01/06 01:46:26;;;;;;;11.67;7.80;;;;;;;3.31;65.15;100120.50;4997652;28;96699;-51
2024/01/06 01:48:54;;;;;;;11.93;7.57;;;;;;;3.32;65.91;100126.75;4995135;28;96722;-52
2024/01/06 01:51:20;;;;;;;8.93;6.70;;;;;;;3.28;65.16;100120.72;4998125;28;97392;-52
2024/01/06 01:53:45;;;;;;;12.43;7.57;;;;;;;3.29;65.51;100127.72;4996650;28;97824;-52
2024/01/06 01:56:11;;;;;;;12.53;7.97;;;;;;;3.28;65.13;100121.50;4995926;28;97353;-52
2024/01/06 01:58:36;;;;;;;13.73;8.07;;;;;;;3.28;65.52;100126.19;4997689;28;97522;-51
2024/01/06 02:01:02;;;;;;;9.80;7.30;;;;;;;3.29;65.50;100122.25;4999161;28;97490;-51
2024/01/06 02:03:30;;;;;;;11.83;6.87;;;;;;;3.28;65.76;100126.19;4995526;28;96769;-52
2024/01/06 02:05:55;;;;;;;12.13;7.70;;;;;;;3.22;65.82;100123.41;4997693;28;97454;-51
2024/01/06 02:08:21;;;;;;;11.30;7.67;;;;;;;3.22;65.31;100128.13;4996440;28;97145;-52
2024/01/06 02:10:46;;;;;;;9.40;7.10;;;;;;;3.17;65.52;100128.78;4996659;28;99316;-51
2024/01/06 02:13:12;;;;;;;11.37;7.60;;;;;;;3.10;65.58;100129.19;4997831;28;97641;-51
2024/01/06 02:15:38;;;;;;;11.60;8.10;;;;;;;3.10;65.59;100131.91;4981000;28;97156;-52
2024/01/06 02:18:04;;;;;;;10.10;7.00;;;;;;;3.12;66.08;100124.00;4995907;28;97254;-51
2024/01/06 02:20:30;;;;;;;11.80;7.70;;;;;;;3.09;65.89;100125.72;4996774;28;97444;-51
2024/01/06 02:22:56;;;;;;;13.63;7.83;;;;;;;3.08;65.81;100128.91;4993545;28;98641;-51
2024/01/06 02:25:22;;;;;;;9.63;7.03;;;;;;;3.06;65.75;100134.09;4997437;28;97315;-51
2024/01/06 02:27:47;;;;;;;9.00;6.47;;;;;;;3.08;65.90;100134.38;4997308;28;97389;-51
2024/01/06 02:30:13;;;;;;;9.03;6.57;;;;;;;3.06;65.92;100132.13;4999195;28;97346;-51
2024/01/06 02:32:38;;;;;;;8.70;6.23;;;;;;;3.05;65.81;100135.34;4995402;28;97500;-50
2024/01/06 02:35:04;;;;;;;7.53;6.00;;;;;;;3.04;66.26;100134.59;4997824;28;97009;-51
2024/01/06 02:37:29;;;;;;;6.30;5.13;;;;;;;3.05;65.77;100141.56;4995751;28;97390;-51
2024/01/06 02:39:54;;;;;;;6.77;5.37;;;;;;;3.06;66.18;100142.31;4996887;28;98627;-51
2024/01/06 02:42:20;;;;;;;8.10;6.17;;;;;;;3.10;65.89;100154.53;4993260;28;100653;-51
2024/01/06 02:44:46;;;;;;;8.43;5.60;;;;;;;3.11;65.76;100150.59;4995174;28;96778;-51
2024/01/06 02:47:11;;;;;;;8.87;6.27;;;;;;;3.11;65.71;100167.00;4999070;28;98076;-51
2024/01/06 02:49:36;;;;;;;8.80;6.30;;;;;;;3.08;65.99;100153.50;4997162;28;97434;-52
2024/01/06 02:52:02;;;;;;;8.77;6.50;;;;;;;3.04;65.95;100155.69;4999285;28;97267;-52
2024/01/06 02:54:27;;;;;;;10.77;6.40;;;;;;;3.05;65.77;100155.22;4994570;28;96962;-51
2024/01/06 02:56:53;;;;;;;8.50;5.80;;;;;;;3.06;65.64;100161.44;4996697;28;97373;-51
2024/01/06 02:59:18;;;;;;;8.70;6.43;;;;;;;3.05;66.07;100173.63;4996935;28;99151;-51
2024/01/06 03:01:43;;;;;;;8.70;6.40;;;;;;;3.07;66.16;100165.69;4997972;28;97582;-51
2024/01/06 03:04:09;;;;;;;9.50;5.90;;;;;;;3.10;65.72;100170.19;4996783;28;97141;-51
2024/01/06 03:06:34;;;;;;;11.20;6.57;;;;;;;3.09;65.62;100169.44;4993970;28;97368;-51
2024/01/06 03:08:59;;;;;;;7.97;5.83;;;;;;;3.04;65.51;100180.28;4997805;28;98432;-51
2024/01/06 03:11:25;;;;;;;10.13;6.50;;;;;;;3.01;65.87;100186.72;4995499;28;98403;-52
2024/01/06 03:13:50;;;;;;;8.63;6.30;;;;;;;3.00;65.92;100177.78;4995141;28;96996;-51
2024/01/06 03:16:16;;;;;;;9.40;6.47;;;;;;;2.97;65.70;100181.44;4997161;28;97412;-52
2024/01/06 03:18:41;;;;;;;10.50;7.23;;;;;;;2.95;65.72;100189.34;4994666;28;97187;-51
2024/01/06 03:21:16;;;;;;;11.03;6.70;;;;;;;2.95;65.74;100191.34;5001600;28;100480;-51
2024/01/06 03:23:42;;;;;;;12.67;7.87;;;;;;;2.91;65.84;100191.53;4995916;28;96854;-51
2024/01/06 03:26:07;;;;;;;9.73;6.83;;;;;;;2.93;65.90;100183.63;4995955;28;97829;-51
2024/01/06 03:28:32;;;;;;;9.43;6.47;;;;;;;2.91;65.95;100194.28;4994313;28;97683;-51
2024/01/06 03:30:58;;;;;;;9.00;6.27;;;;;;;2.96;65.93;100193.63;4993404;28;98454;-51
2024/01/06 03:33:23;;;;;;;10.63;7.10;;;;;;;2.98;66.03;100195.84;4993081;28;97178;-51
2024/01/06 03:35:48;;;;;;;11.10;6.83;;;;;;;3.01;65.63;100195.66;4994188;28;102367;-51
2024/01/06 03:38:14;;;;;;;12.80;7.40;;;;;;;3.00;65.46;100193.41;4995095;28;98531;-52
2024/01/06 03:40:39;;;;;;;10.33;6.73;;;;;;;3.02;65.73;100199.16;4995800;28;99094;-51
2024/01/06 03:43:04;;;;;;;10.00;6.50;;;;;;;2.99;65.90;100197.34;4996046;28;97218;-52
2024/01/06 03:45:30;;;;;;;11.17;7.10;;;;;;;2.91;65.79;100190.78;4994479;28;97174;-52
2024/01/06 03:47:55;;;;;;;8.30;5.90;;;;;;;2.97;65.93;100194.34;4994597;28;97669;-51
2024/01/06 03:50:21;;;;;;;9.03;6.20;;;;;;;2.94;66.01;100201.53;4996207;28;97277;-51
2024/01/06 03:52:46;;;;;;;9.33;6.90;;;;;;;2.94;66.03;100207.00;4993830;28;97191;-52
2024/01/06 03:55:12;;;;;;;9.40;6.77;;;;;;;2.96;66.32;100220.19;4995504;28;96664;-51
2024/01/06 03:57:37;;;;;;;10.17;6.87;;;;;;;2.97;65.82;100222.41;4995662;28;100651;-51
2024/01/06 04:00:03;;;;;;;9.50;6.30;;;;;;;2.99;65.74;100225.44;4994348;28;96624;-51
2024/01/06 04:02:28;;;;;;;13.87;7.50;;;;;;;3.00;65.69;100229.69;4994732;28;96726;-51
2024/01/06 04:04:54;;;;;;;10.20;6.70;;;;;;;3.03;66.15;100228.72;4993795;28;96967;-51
2024/01/06 04:07:19;;;;;;;10.27;7.30;;;;;;;3.08;65.78;100232.75;4995017;28;97381;-51
2024/01/06 04:09:44;;;;;;;10.43;6.83;;;;;;;3.09;65.63;100234.28;4994358;28;101601;-51
2024/01/06 04:12:09;;;;;;;10.23;6.90;;;;;;;3.08;65.52;100232.75;4992343;28;97220;-51
2024/01/06 04:14:35;;;;;;;11.43;7.30;;;;;;;3.07;65.42;100237.50;4997812;28;97097;-51
2024/01/06 04:17:00;;;;;;;12.47;8.30;;;;;;;3.06;65.80;100235.97;4992820;28;96686;-51
2024/01/06 04:19:25;;;;;;;13.50;7.90;;;;;;;3.00;65.54;100231.66;4993384;28;103948;-51
2024/01/06 04:21:51;;;;;;;9.47;6.83;;;;;;;2.99;65.68;100238.34;4996740;28;98812;-51
2024/01/06 04:24:16;;;;;;;12.03;7.63;;;;;;;2.99;65.86;100244.56;4993038;28;97352;-51
2024/01/06 04:26:44;;;;;;;10.63;6.93;;;;;;;2.95;65.80;100254.16;4993549;28;97188;-51
2024/01/06 04:29:10;;;;;;;10.67;7.30;;;;;;;2.96;65.50;100242.78;4991979;28;97104;-51
2024/01/06 04:31:35;;;;;;;10.73;7.63;;;;;;;2.99;65.92;100249.25;4995928;28;97129;-51
2024/01/06 04:34:00;;;;;;;10.20;6.83;;;;;;;2.96;65.72;100253.72;4995348;28;102947;-51
2024/01/06 04:36:26;;;;;;;11.80;8.07;;;;;;;2.96;65.53;100261.91;4995459;28;108856;-51
2024/01/06 04:38:51;;;;;;;13.27;8.13;;;;;;;2.98;65.74;100256.72;4994368;28;97417;-51
2024/01/06 04:41:16;;;;;;;13.07;8.37;;;;;;;2.95;65.92;100257.66;4993898;28;98147;-51
2024/01/06 04:43:42;;;;;;;13.60;7.77;;;;;;;2.96;65.88;100258.44;4997009;28;97012;-51
2024/01/06 04:46:07;;;;;;;12.30;7.87;;;;;;;2.95;65.58;100263.13;4997159;28;97467;-51
2024/01/06 04:48:33;;;;;;;13.40;7.83;;;;;;;2.97;65.88;100270.84;4999467;28;97136;-51
2024/01/06 04:50:58;;;;;;;12.17;7.37;;;;;;;2.97;65.92;100266.13;5001381;28;97063;-51
2024/01/06 04:53:23;;;;;;;16.10;7.50;;;;;;;2.94;65.83;100282.72;4996141;28;96800;-51
2024/01/06 04:55:48;;;;;;;13.60;8.70;;;;;;;2.91;66.16;100283.66;4996549;28;103494;-51
2024/01/06 04:58:14;;;;;;;12.80;7.60;;;;;;;2.94;65.94;100288.97;4998363;28;97364;-51
2024/01/06 05:00:39;;;;;;;13.63;8.07;;;;;;;2.92;65.92;100288.66;4999456;28;96978;-51
2024/01/06 05:03:05;;;;;;;13.40;7.50;;;;;;;2.92;66.12;100290.66;4993702;28;97466;-51
2024/01/06 05:05:30;;;;;;;14.83;8.10;;;;;;;2.87;65.77;100294.03;4994534;28;97857;-51
2024/01/06 05:07:56;;;;;;;11.00;7.53;;;;;;;2.89;65.88;100297.81;4997501;28;97565;-51
2024/01/06 05:10:21;;;;;;;12.70;8.00;;;;;;;2.93;65.98;100292.16;4999591;28;97641;-51
2024/01/06 05:12:46;;;;;;;13.77;8.10;;;;;;;2.95;65.67;100311.56;4998277;28;96992;-51
2024/01/06 05:15:11;;;;;;;15.00;8.57;;;;;;;2.95;65.73;100308.81;4996622;28;106249;-51
2024/01/06 05:17:37;;;;;;;14.20;8.20;;;;;;;2.85;65.87;100302.72;4998563;28;102312;-51
2024/01/06 05:20:03;;;;;;;14.83;9.10;;;;;;;2.88;66.22;100320.88;4998791;28;97220;-51
2024/01/06 05:22:29;;;;;;;12.80;8.07;;;;;;;2.90;65.89;100312.97;4997174;28;98795;-51
2024/01/06 05:24:54;;;;;;;14.23;8.17;;;;;;;2.94;65.82;100321.75;4999557;28;97863;-51
2024/01/06 05:27:20;;;;;;;12.40;7.57;;;;;;;2.94;65.71;100318.25;4997285;28;97271;-51
2024/01/06 05:29:45;;;;;;;13.93;8.03;;;;;;;2.93;66.02;100328.41;4998355;28;97234;-51
2024/01/06 05:32:10;;;;;;;14.13;8.33;;;;;;;2.87;65.76;100333.03;4998722;28;96856;-51
2024/01/06 05:34:36;;;;;;;10.67;6.97;;;;;;;2.88;65.86;100336.50;4995422;28;98490;-51
2024/01/06 05:37:01;;;;;;;14.90;9.10;;;;;;;2.87;65.94;100326.81;4999474;28;100383;-51
2024/01/06 05:39:27;;;;;;;17.13;8.90;;;;;;;2.89;65.95;100343.50;4998946;28;97166;-51
2024/01/06 05:41:52;;;;;;;14.10;8.97;;;;;;;2.91;65.73;100350.00;5000799;28;97536;-51
2024/01/06 05:44:17;;;;;;;13.73;8.60;;;;;;;2.91;65.59;100344.53;4996656;28;97316;-51
2024/01/06 05:46:43;;;;;;;12.03;7.73;;;;;;;2.94;65.73;100348.31;4996489;28;102299;-51
2024/01/06 05:49:10;;;;;;;12.93;7.83;;;;;;;2.91;65.50;100349.25;4999201;28;97390;-52
2024/01/06 05:51:35;;;;;;;14.80;8.80;;;;;;;2.90;65.61;100375.81;4996990;28;97447;-51
2024/01/06 05:54:02;;;;;;;10.63;7.00;;;;;;;2.89;65.58;100351.69;4993239;28;98676;-51
2024/01/06 05:56:28;;;;;;;11.50;7.83;;;;;;;2.90;65.73;100359.41;4997699;28;97420;-51
2024/01/06 05:58:54;;;;;;;12.20;7.60;;;;;;;2.89;65.69;100379.78;4998518;28;96931;-51
2024/01/06 06:01:20;;;;;;;13.17;7.73;;;;;;;2.90;65.63;100364.13;4996665;28;97140;-51
2024/01/06 06:03:47;;;;;;;11.67;7.20;;;;;;;2.91;65.57;100369.13;4995853;28;96830;-51
2024/01/06 06:06:12;;;;;;;11.03;7.50;;;;;;;2.86;65.62;100377.22;4996886;28;98874;-51
2024/01/06 06:08:37;;;;;;;10.50;7.07;;;;;;;2.84;65.71;100376.94;5001126;28;96692;-52
2024/01/06 06:11:10;;;;;;;9.77;7.00;;;;;;;2.80;66.03;100384.56;4995950;28;97041;-51
2024/01/06 06:13:40;;;;;;;10.80;6.40;;;;;;;2.76;65.57;100373.06;4995667;28;97292;-52
2024/01/06 06:16:06;;;;;;;10.87;7.23;;;;;;;2.74;65.70;100389.94;4998225;28;97256;-51
2024/01/06 06:18:32;;;;;;;15.60;6.43;;;;;;;2.77;66.08;100382.78;4994376;28;97046;-51
2024/01/06 06:20:59;;;;;;;9.17;5.67;;;;;;;2.80;65.90;100393.50;4996825;28;98985;-51
2024/01/06 06:23:24;;;;;;;10.87;6.57;;;;;;;2.75;65.58;100391.41;4996114;28;97471;-51
2024/01/06 06:25:49;;;;;;;12.43;6.40;;;;;;;2.75;65.90;100393.38;4998007;28;108037;-51
2024/01/06 06:28:14;;;;;;;12.23;6.60;;;;;;;2.72;65.96;100402.53;4998614;28;97000;-51
2024/01/06 06:30:40;;;;;;;9.17;6.30;;;;;;;2.70;65.80;100404.97;4997794;28;97233;-51
2024/01/06 06:33:05;;;;;;;10.57;6.67;;;;;;;2.67;65.52;100412.13;4999049;28;97033;-51
2024/01/06 06:35:30;;;;;;;11.57;6.43;;;;;;;2.68;66.12;100407.44;4999009;28;96924;-51
2024/01/06 06:37:56;;;;;;;8.50;5.70;;;;;;;2.67;66.15;100416.84;5000239;28;97069;-51
2024/01/06 06:40:21;;;;;;;9.50;6.00;;;;;;;2.68;65.83;100419.09;4997352;28;97352;-51
2024/01/06 06:42:46;;;;;;;12.47;6.87;;;;;;;2.66;65.65;100427.00;4994239;28;104121;-51
2024/01/06 06:45:13;;;;;;;9.53;6.20;;;;;;;2.66;66.17;100426.25;4994689;28;98497;-51
2024/01/06 06:47:38;;;;;;;10.60;5.80;;;;;;;2.65;65.91;100428.22;5000654;28;96984;-51
2024/01/06 06:50:04;;;;;;;10.10;6.27;;;;;;;2.64;65.88;100434.16;4998664;28;97045;-51
2024/01/06 06:52:29;;;;;;;10.17;6.80;;;;;;;2.68;66.08;100440.22;4997936;28;97135;-51
2024/01/06 06:54:54;;;;;;;10.37;7.00;;;;;;;2.69;66.01;100444.44;4996770;28;97333;-51
2024/01/06 06:57:20;;;;;;;11.20;7.07;;;;;;;2.65;66.29;100444.63;4996221;28;97101;-51
2024/01/06 06:59:45;;;;;;;11.17;6.70;;;;;;;2.66;66.04;100456.31;4996263;28;97074;-51
2024/01/06 07:02:11;;;;;;;13.03;7.00;;;;;;;2.63;66.32;100451.75;4994289;28;97873;-51
2024/01/06 07:04:36;;;;;;;8.77;6.10;;;;;;;2.63;66.07;100479.06;4993381;28;97296;-51
2024/01/06 07:07:01;;;;;;;12.43;6.77;;;;;;;2.59;66.02;100465.59;4994859;28;97553;-51
2024/01/06 07:09:27;;;;;;;15.93;7.33;;;;;;;2.57;66.32;100475.47;4997707;28;97130;-51
2024/01/06 07:11:52;;;;;;;12.03;6.40;;;;;;;2.59;66.27;100473.03;4995625;28;97835;-51
2024/01/06 07:14:17;;;;;;;9.67;6.80;;;;;;;2.57;66.01;100470.03;4994728;28;97253;-52
2024/01/06 07:16:43;;;;;;;9.33;6.33;;;;;;;2.58;66.35;100477.75;4997363;28;97361;-51
2024/01/06 07:19:08;;;;;;;11.10;5.77;;;;;;;2.61;66.22;100479.56;4997136;28;97747;-51
2024/01/06 07:21:33;;;;;;;10.97;7.17;;;;;;;2.58;66.07;100477.75;4996005;28;109990;-51
2024/01/06 07:24:01;;;;;;;11.63;6.87;;;;;;;2.49;66.31;100484.00;4993430;28;97095;-51
2024/01/06 07:26:26;;;;;;;9.13;6.17;;;;;;;2.40;66.38;100486.78;4993631;28;97392;-51
2024/01/06 07:28:51;;;;;;;8.40;6.03;;;;;;;2.33;66.33;100497.28;4996651;28;97335;-51
2024/01/06 07:31:17;;;;;;;12.33;5.97;;;;;;;2.34;66.58;100494.13;4993221;28;108602;-51
2024/01/06 07:33:42;;;;;;;8.90;6.63;;;;;;;2.39;66.57;100504.41;4994553;28;97441;-51
2024/01/06 07:36:08;;;;;;;8.83;5.80;;;;;;;2.41;66.36;100504.69;4997319;28;97180;-51
2024/01/06 07:38:33;;;;;;;6.97;5.33;;;;;;;2.46;66.29;100514.97;4998470;28;97083;-52
2024/01/06 07:40:58;;;;;;;7.77;5.57;;;;;;;2.47;66.29;100513.75;4995177;28;97350;-52
2024/01/06 07:43:24;;;;;;;7.90;5.20;;;;;;;2.46;66.18;100508.78;4994907;28;97360;-51
2024/01/06 07:45:50;;;;;;;6.33;5.00;;;;;;;2.41;66.43;100515.63;4992157;28;97439;-52
2024/01/06 07:48:16;;;;;;;6.83;5.00;;;;;;;2.45;66.25;100518.94;4992411;28;96802;-52
2024/01/06 07:50:41;;;;;;;6.43;4.63;;;;;;;2.44;66.19;100520.13;4996748;28;97417;-51
2024/01/06 07:53:07;;;;;;;4.57;3.97;;;;;;;2.42;66.13;100530.75;4995991;28;97159;-51
2024/01/06 07:55:32;;;;;;;6.80;4.63;;;;;;;2.43;66.04;100528.78;4996464;28;96976;-52
2024/01/06 07:57:57;;;;;;;6.60;4.47;;;;;;;2.41;66.51;100534.72;4994713;28;96938;-51
2024/01/06 08:00:23;;;;;;;5.50;3.97;;;;;;;2.41;66.28;100536.69;4993710;28;107652;-51
2024/01/06 08:02:48;;;;;;;5.57;4.40;;;;;;;2.41;66.34;100553.84;4995264;28;97437;-51
2024/01/06 08:05:13;;;;;;;5.37;3.80;;;;;;;2.41;66.49;100548.38;4993071;28;97453;-51
2024/01/06 08:07:39;;;;;;;6.20;4.40;;;;;;;2.42;66.30;100549.13;4995267;28;97043;-51
2024/01/06 08:10:05;;;;;;;4.03;3.60;;;;;;;2.38;66.24;100554.00;4994408;28;97131;-51
2024/01/06 08:12:31;;;;;;;5.40;3.90;;;;;;;2.38;66.40;100560.22;4994490;28;97805;-51
2024/01/06 08:14:56;;;;;;;3.67;3.33;;;;;;;2.39;66.23;100567.19;4995339;28;97297;-52
2024/01/06 08:17:22;;;;;;;5.10;3.80;;;;;;;2.41;66.54;100567.50;4994873;28;97176;-51
2024/01/06 08:19:47;;;;;;;4.07;3.50;;;;;;;2.42;66.21;100571.72;4994385;28;97375;-51
2024/01/06 08:22:13;;;;;;;3.87;3.13;;;;;;;2.40;66.33;100579.63;4994211;28;96817;-51
2024/01/06 08:24:38;;;;;;;4.57;3.50;;;;;;;2.43;66.19;100581.44;4996313;28;97027;-51
2024/01/06 08:27:04;;;;;;;4.60;3.50;;;;;;;2.42;65.99;100588.09;4992552;28;99637;-51
2024/01/06 08:29:30;;;;;;;2.93;2.63;;;;;;;2.40;66.18;100587.03;4994287;28;97556;-51
2024/01/06 08:31:55;;;;;;;3.80;3.10;;;;;;;2.42;66.14;100588.09;4996008;28;97164;-51
2024/01/06 08:34:20;;;;;;;3.03;2.73;;;;;;;2.43;66.37;100594.31;4992190;28;97206;-51
2024/01/06 08:36:46;;;;;;;3.10;2.60;;;;;;;2.43;66.16;100603.28;4994768;28;97410;-51
2024/01/06 08:39:12;;;;;;;3.03;2.63;;;;;;;2.43;65.92;100603.28;4993056;28;97089;-51
2024/01/06 08:41:37;;;;;;;2.60;2.40;;;;;;;2.44;66.36;100601.31;4994459;28;96757;-51
2024/01/06 08:44:04;;;;;;;3.30;2.80;;;;;;;2.44;66.09;100610.22;4992158;28;97171;-52
2024/01/06 08:46:30;;;;;;;3.03;2.83;;;;;;;2.42;66.33;100615.41;4994177;28;97890;-51
2024/01/06 08:48:55;;;;;;;3.80;3.23;;;;;;;2.42;66.20;100623.59;4994384;28;97612;-52
2024/01/06 08:51:21;;;;;;;5.93;3.30;;;;;;;2.42;66.16;100614.63;4993595;28;96977;-51
2024/01/06 08:53:46;;;;;;;3.40;3.07;;;;;;;2.37;66.42;100620.75;4993047;28;97136;-51
2024/01/06 08:56:12;;;;;;;8.07;5.83;;;;;;;2.38;65.94;100625.72;4994338;28;96905;-51
2024/01/06 08:58:37;;;;;;;6.47;4.87;;;;;;;2.36;65.98;100638.31;4994169;28;96715;-51
2024/01/06 09:01:02;;;;;;;4.93;3.93;;;;;;;2.33;65.99;100634.50;4994505;28;97104;-51
2024/01/06 09:03:28;;;;;;;5.03;4.00;;;;;;;2.31;65.96;100647.84;4994207;28;97125;-52
2024/01/06 09:05:56;;;;;;;4.60;4.00;;;;;;;2.34;66.57;100640.75;4994838;28;96783;-51
2024/01/06 09:08:21;;;;;;;4.23;3.80;;;;;;;2.33;66.26;100644.69;4993399;28;97381;-52
2024/01/06 09:10:46;;;;;;;5.80;3.70;;;;;;;2.34;66.52;100657.91;4997471;28;97209;-51
2024/01/06 09:13:12;;;;;;;5.10;3.77;;;;;;;2.38;66.60;100655.00;4994406;28;96867;-52
2024/01/06 09:15:37;;;;;;;6.20;3.93;;;;;;;2.37;66.05;100664.41;4994279;28;97120;-52
2024/01/06 09:18:02;;;;;;;4.83;3.53;;;;;;;2.40;66.19;100671.69;4994794;28;97632;-51
2024/01/06 09:20:28;;;;;;;3.80;3.40;;;;;;;2.42;66.21;100671.97;4991783;28;96737;-51
2024/01/06 09:22:53;;;;;;;4.20;3.80;;;;;;;2.41;66.08;100679.44;4995345;28;97047;-51
2024/01/06 09:25:19;;;;;;;4.50;3.90;;;;;;;2.42;66.13;100683.66;4994444;28;97363;-51
2024/01/06 09:27:44;;;;;;;6.63;4.60;;;;;;;2.38;66.39;100683.06;4993156;28;97551;-51
2024/01/06 09:30:10;;;;;;;7.30;3.70;;;;;;;2.41;66.43;100690.34;4987543;28;97183;-51
2024/01/06 09:32:36;;;;;;;6.37;4.23;;;;;;;2.43;65.89;100692.59;4995593;28;96962;-52
2024/01/06 09:35:01;;;;;;;4.33;3.80;;;;;;;2.39;66.34;100695.50;4995272;28;97219;-51
2024/01/06 09:37:26;;;;;;;6.80;4.97;;;;;;;2.33;66.31;100702.75;4991426;28;97625;-52
2024/01/06 09:39:52;;;;;;;6.20;4.30;;;;;;;2.33;66.39;100710.94;4994272;28;103867;-52
2024/01/06 09:42:17;;;;;;;9.03;5.03;;;;;;;2.30;66.04;100703.69;4994165;28;96973;-52
2024/01/06 09:44:43;;;;;;;7.17;5.37;;;;;;;2.31;66.33;100707.91;4996816;28;97005;-51
2024/01/06 09:47:11;;;;;;;7.30;6.00;;;;;;;2.33;66.31;100715.66;4995042;28;97783;-51
2024/01/06 09:49:39;;;;;;;6.87;5.13;;;;;;;2.30;66.24;100717.34;4991545;28;98522;-52
2024/01/06 09:52:14;;;;;;;7.33;5.30;;;;;;;2.29;65.99;100715.03;4995754;28;96839;-51
2024/01/06 09:54:46;;;;;;;10.43;6.30;;;;;;;2.28;66.28;100719.75;4995559;28;97389;-52
2024/01/06 09:57:12;;;;;;;8.13;5.10;;;;;;;2.32;66.43;100725.81;4995672;28;98081;-52
2024/01/06 09:59:38;;;;;;;9.50;6.00;;;;;;;2.38;66.23;100724.00;4993949;28;97339;-52
2024/01/06 10:02:04;;;;;;;6.97;5.00;;;;;;;2.43;66.08;100733.56;4998562;28;96766;-52
2024/01/06 10:04:30;;;;;;;8.20;5.50;;;;;;;2.42;66.09;100751.91;4996035;28;97390;-52
2024/01/06 10:06:55;;;;;;;7.17;5.50;;;;;;;2.42;66.32;100730.06;4992960;28;97077;-52
2024/01/06 10:09:29;;;;;;;8.33;5.23;;;;;;;2.44;66.14;100741.28;4994638;28;97078;-52
2024/01/06 10:11:56;;;;;;;8.13;5.80;;;;;;;2.47;66.21;100739.63;4996460;28;97263;-52
2024/01/06 10:14:23;;;;;;;7.90;5.10;;;;;;;2.47;66.19;100745.09;4998062;28;97228;-52
2024/01/06 10:16:50;;;;;;;8.00;6.07;;;;;;;2.48;66.13;100741.88;4993644;28;97427;-52
2024/01/06 10:19:16;;;;;;;7.67;5.40;;;;;;;2.54;66.35;100758.44;4999174;28;97444;-52
2024/01/06 10:21:41;;;;;;;5.90;4.93;;;;;;;2.53;65.79;100751.44;4991179;28;97438;-52
2024/01/06 10:24:10;;;;;;;8.63;5.50;;;;;;;2.58;65.93;100761.75;4995442;28;96998;-52
2024/01/06 10:26:35;;;;;;;7.30;4.97;;;;;;;2.62;65.97;100759.63;4994287;28;97206;-52
2024/01/06 10:29:01;;;;;;;7.63;5.37;;;;;;;2.61;66.04;100754.63;4996700;28;97513;-52
2024/01/06 10:31:26;;;;;;;8.00;5.40;;;;;;;2.55;66.15;100762.66;4996442;28;97980;-52
2024/01/06 10:33:52;;;;;;;8.60;5.40;;;;;;;2.61;65.73;100766.31;4996648;28;97216;-52
2024/01/06 10:36:17;;;;;;;8.33;5.10;;;;;;;2.61;65.99;100763.56;4993620;28;97084;-52
2024/01/06 10:38:44;;;;;;;10.47;5.67;;;;;;;2.57;65.45;100760.97;4996069;28;97075;-52
2024/01/06 10:41:11;;;;;;;10.20;6.30;;;;;;;2.51;65.81;100768.28;4995611;28;97213;-52
2024/01/06 10:43:40;;;;;;;8.13;5.37;;;;;;;2.54;65.96;100772.84;4995690;28;96896;-52
2024/01/06 10:46:09;;;;;;;10.13;6.40;;;;;;;2.57;65.79;100771.16;4994409;28;96922;-52
2024/01/06 10:48:38;;;;;;;9.87;5.70;;;;;;;2.55;65.72;100788.00;4997011;28;97657;-52
2024/01/06 10:51:07;;;;;;;11.27;5.60;;;;;;;2.54;65.79;100778.31;4996337;28;97538;-52
2024/01/06 10:53:33;;;;;;;11.20;5.87;;;;;;;2.57;65.95;100777.38;4994972;28;96792;-52
2024/01/06 10:55:59;;;;;;;10.10;5.53;;;;;;;2.60;65.74;100780.41;4995442;28;96750;-52
2024/01/06 10:58:25;;;;;;;9.87;5.80;;;;;;;2.61;66.12;100781.94;4993592;28;97038;-52
2024/01/06 11:00:51;;;;;;;10.47;5.73;;;;;;;2.64;66.12;100778.28;4993884;28;97327;-52
2024/01/06 11:03:17;;;;;;;9.63;6.10;;;;;;;2.58;65.59;100783.59;4995888;28;97174;-52
2024/01/06 11:05:43;;;;;;;9.53;5.60;;;;;;;2.60;65.61;100788.59;4990851;28;96804;-52
2024/01/06 11:08:10;;;;;;;8.90;4.97;;;;;;;2.52;65.54;100785.44;4994816;28;97012;-52
2024/01/06 11:10:37;;;;;;;8.77;5.30;;;;;;;2.47;65.75;100784.06;4995734;28;96850;-52
2024/01/06 11:13:11;;;;;;;7.00;5.10;;;;;;;2.53;66.17;100784.97;4994949;28;97274;-52
2024/01/06 11:15:52;;;;;;;9.20;5.97;;;;;;;2.57;65.84;100780.09;4994757;28;97067;-52
2024/01/06 11:18:40;;;;;;;9.53;6.03;;;;;;;2.66;65.88;100794.97;4996007;28;97505;-52
2024/01/06 11:21:17;;;;;;;6.97;5.13;;;;;;;2.71;65.59;100786.16;4994049;28;97232;-52
2024/01/06 11:23:42;;;;;;;10.67;5.90;;;;;;;2.67;65.93;100788.28;4994527;28;97271;-52